createdAt,value
2023-03-28T00:02:25.331Z,1.98
2023-03-28T00:04:53.724Z,2.03
2023-03-28T00:07:23.141Z,2.45
2023-03-28T00:09:51.596Z,1.80
2023-03-28T00:12:20.102Z,2.08
2023-03-28T00:14:50.029Z,1.70
2023-03-28T00:17:18.634Z,2.30
2023-03-28T00:19:49.986Z,1.60
2023-03-28T00:22:18.455Z,2.00
2023-03-28T00:24:48.882Z,2.13
2023-03-28T00:27:17.835Z,1.80
2023-03-28T00:29:46.166Z,2.03
2023-03-28T00:32:15.852Z,2.05
2023-03-28T00:34:44.317Z,1.70
2023-03-28T00:37:17.374Z,2.00
2023-03-28T00:39:49.964Z,2.28
2023-03-28T00:42:19.562Z,2.40
2023-03-28T00:44:51.881Z,2.00
2023-03-28T00:47:42.150Z,1.60
2023-03-28T00:50:16.793Z,1.90
2023-03-28T00:52:52.655Z,1.45
2023-03-28T00:55:25.857Z,2.17
2023-03-28T00:57:55.135Z,2.00
2023-03-28T01:00:24.674Z,1.83
2023-03-28T01:02:58.469Z,2.00
2023-03-28T01:05:29.957Z,1.92
2023-03-28T01:08:05.740Z,1.67
2023-03-28T01:10:35.146Z,1.80
2023-03-28T01:13:04.674Z,1.98
2023-03-28T01:15:33.803Z,1.98
2023-03-28T01:18:11.447Z,2.10
2023-03-28T01:21:49.103Z,1.77
2023-03-28T01:25:12.933Z,2.20
2023-03-28T01:27:50.694Z,2.30
2023-03-28T01:31:09.769Z,1.90
2023-03-28T01:34:24.111Z,1.90
2023-03-28T01:37:11.928Z,2.28
2023-03-28T01:40:12.541Z,1.80
2023-03-28T01:42:53.234Z,1.85
2023-03-28T01:45:31.481Z,1.63
2023-03-28T01:48:08.122Z,2.00
2023-03-28T01:50:46.046Z,2.13
2023-03-28T01:53:22.659Z,1.73
2023-03-28T01:55:57.400Z,1.95
2023-03-28T01:58:35.362Z,1.88
2023-03-28T02:01:09.070Z,1.95
2023-03-28T02:03:41.194Z,1.90
2023-03-28T02:06:13.017Z,1.55
2023-03-28T02:08:46.373Z,2.60
2023-03-28T02:11:14.890Z,1.90
2023-03-28T02:13:48.345Z,2.20
2023-03-28T02:16:18.965Z,2.03
2023-03-28T02:18:54.704Z,1.70
2023-03-28T02:21:29.472Z,1.85
2023-03-28T02:23:59.118Z,1.77
2023-03-28T02:26:28.615Z,1.23
2023-03-28T02:28:59.495Z,2.28
2023-03-28T02:31:28.115Z,2.00
2023-03-28T02:33:58.849Z,1.67
2023-03-28T02:36:42.809Z,1.70
2023-03-28T02:39:37.902Z,2.03
2023-03-28T02:42:31.722Z,1.48
2023-03-28T02:45:40.824Z,2.00
2023-03-28T02:48:22.947Z,1.65
2023-03-28T02:51:06.297Z,1.48
2023-03-28T02:53:47.293Z,1.52
2023-03-28T02:56:23.466Z,1.83
2023-03-28T02:58:56.927Z,1.70
2023-03-28T03:01:29.241Z,2.22
2023-03-28T03:03:58.561Z,2.55
2023-03-28T03:06:26.990Z,2.20
2023-03-28T03:08:55.824Z,2.20
2023-03-28T03:11:28.186Z,1.73
2023-03-28T03:13:57.513Z,2.03
2023-03-28T03:16:25.970Z,1.95
2023-03-28T03:18:54.336Z,2.22
2023-03-28T03:21:23.895Z,2.25
2023-03-28T03:23:53.368Z,2.33
2023-03-28T03:26:22.528Z,2.20
2023-03-28T03:28:52.355Z,2.58
2023-03-28T03:31:21.591Z,2.63
2023-03-28T03:33:50.007Z,2.65
2023-03-28T03:36:18.899Z,2.30
2023-03-28T03:38:48.041Z,3.03
2023-03-28T03:41:16.449Z,2.40
2023-03-28T03:43:47.077Z,3.03
2023-03-28T03:46:16.983Z,2.72
2023-03-28T03:48:49.651Z,3.03
2023-03-28T03:51:19.140Z,2.97
2023-03-28T03:53:50.881Z,2.72
2023-03-28T03:56:19.314Z,3.00
2023-03-28T03:58:47.653Z,3.03
2023-03-28T04:01:17.488Z,2.28
2023-03-28T04:03:48.171Z,3.05
2023-03-28T04:06:16.579Z,3.20
2023-03-28T04:08:45.717Z,2.72
2023-03-28T04:11:14.016Z,2.75
2023-03-28T04:13:42.472Z,2.70
2023-03-28T04:16:13.721Z,2.28
2023-03-28T04:18:45.663Z,2.15
2023-03-28T04:21:16.935Z,2.50
2023-03-28T04:23:48.450Z,2.85
2023-03-28T04:26:20.652Z,3.22
2023-03-28T04:28:49.139Z,2.63
2023-03-28T04:31:17.558Z,2.72
2023-03-28T04:33:47.675Z,2.63
2023-03-28T04:36:18.385Z,3.15
2023-03-28T04:38:46.797Z,2.83
2023-03-28T04:41:16.828Z,3.38
2023-03-28T04:43:45.584Z,3.00
2023-03-28T04:46:13.932Z,3.70
2023-03-28T04:48:42.248Z,3.15
2023-03-28T04:51:11.941Z,3.38
2023-03-28T04:53:40.616Z,3.97
2023-03-28T04:56:14.008Z,3.53
2023-03-28T04:58:42.965Z,4.65
2023-03-28T05:01:11.810Z,3.97
2023-03-28T05:03:40.262Z,4.53
2023-03-28T05:06:09.292Z,4.22
2023-03-28T05:08:39.346Z,4.13
2023-03-28T05:11:08.369Z,3.92
2023-03-28T05:13:36.893Z,4.57
2023-03-28T05:16:06.177Z,4.78
2023-03-28T05:18:34.521Z,4.45
2023-03-28T05:21:03.020Z,4.57
2023-03-28T05:23:31.379Z,5.10
2023-03-28T05:26:02.294Z,5.07
2023-03-28T05:28:30.632Z,4.45
2023-03-28T05:30:59.241Z,5.68
2023-03-28T05:33:27.733Z,5.82
2023-03-28T05:35:56.179Z,5.28
2023-03-28T05:38:24.623Z,5.43
2023-03-28T05:40:53.509Z,4.93
2023-03-28T05:43:23.279Z,5.57
2023-03-28T05:45:51.642Z,6.53
2023-03-28T05:48:20.927Z,6.07
2023-03-28T05:50:50.484Z,6.18
2023-03-28T05:53:18.874Z,7.22
2023-03-28T05:55:47.214Z,6.22
2023-03-28T05:58:17.593Z,5.80
2023-03-28T06:00:47.354Z,5.85
2023-03-28T06:03:17.431Z,6.10
2023-03-28T06:05:46.259Z,6.30
2023-03-28T06:08:14.572Z,6.60
2023-03-28T06:10:42.942Z,7.30
2023-03-28T06:13:11.666Z,6.22
2023-03-28T06:15:40.400Z,7.47
2023-03-28T06:18:10.633Z,7.25
2023-03-28T06:20:38.952Z,7.70
2023-03-28T06:23:07.256Z,7.50
2023-03-28T06:25:35.634Z,8.23
2023-03-28T06:28:04.013Z,7.78
2023-03-28T06:30:32.330Z,8.35
2023-03-28T06:33:01.147Z,7.72
2023-03-28T06:35:31.284Z,9.98
2023-03-28T06:37:59.980Z,8.80
2023-03-28T06:40:28.446Z,9.00
2023-03-28T06:42:56.949Z,8.75
2023-03-28T06:45:25.537Z,9.00
2023-03-28T06:47:54.949Z,10.30
2023-03-28T06:50:23.438Z,10.25
2023-03-28T06:52:53.716Z,11.23
2023-03-28T06:55:22.785Z,9.70
2023-03-28T06:57:51.558Z,10.55
2023-03-28T07:00:21.333Z,10.85
2023-03-28T07:02:49.812Z,12.25
2023-03-28T07:05:18.292Z,11.55
2023-03-28T07:07:46.848Z,11.60
2023-03-28T07:10:16.826Z,11.95
2023-03-28T07:12:45.338Z,12.10
2023-03-28T07:15:13.749Z,11.35
2023-03-28T07:17:42.114Z,11.55
2023-03-28T07:20:11.751Z,11.35
2023-03-28T07:22:40.124Z,11.07
2023-03-28T07:25:10.011Z,11.50
2023-03-28T07:27:40.103Z,11.55
2023-03-28T07:30:09.997Z,10.75
2023-03-28T07:32:49.940Z,11.98
2023-03-28T07:35:22.982Z,11.00
2023-03-28T07:37:51.422Z,10.05
2023-03-28T07:40:19.965Z,9.82
2023-03-28T07:42:51.220Z,9.25
2023-03-28T07:45:19.494Z,7.88
2023-03-28T07:47:47.812Z,8.48
2023-03-28T07:50:16.462Z,7.57
2023-03-28T07:52:45.800Z,9.13
2023-03-28T07:55:14.328Z,7.50
2023-03-28T07:57:43.955Z,8.38
2023-03-28T08:00:17.425Z,6.82
2023-03-28T08:02:45.838Z,7.85
2023-03-28T08:05:14.391Z,7.82
2023-03-28T08:07:45.991Z,7.30
2023-03-28T08:10:14.902Z,6.85
2023-03-28T08:12:43.301Z,6.60
2023-03-28T08:15:13.630Z,6.10
2023-03-28T08:17:42.369Z,6.45
2023-03-28T08:20:12.378Z,6.07
2023-03-28T08:22:41.214Z,6.55
2023-03-28T08:25:10.610Z,5.57
2023-03-28T08:27:39.294Z,5.90
2023-03-28T08:30:09.400Z,4.47
2023-03-28T08:32:39.239Z,5.47
2023-03-28T08:35:08.454Z,4.95
2023-03-28T08:37:37.099Z,4.88
2023-03-28T08:40:08.885Z,4.40
2023-03-28T08:43:09.286Z,4.97
2023-03-28T08:45:50.129Z,4.18
2023-03-28T08:48:38.781Z,3.55
2023-03-28T08:51:20.062Z,4.22
2023-03-28T08:53:54.932Z,4.60
2023-03-28T08:56:23.295Z,4.40
2023-03-28T08:59:02.175Z,4.70
2023-03-28T09:01:32.912Z,5.05
2023-03-28T09:04:03.611Z,4.45
2023-03-28T09:06:39.866Z,3.17
2023-03-28T09:09:44.315Z,3.05
2023-03-28T09:12:35.655Z,2.60
2023-03-28T09:15:23.185Z,2.70
2023-03-28T09:18:12.169Z,2.72
2023-03-28T09:20:51.147Z,3.03
2023-03-28T09:23:39.398Z,2.25
2023-03-28T09:26:12.389Z,2.97
2023-03-28T09:28:51.241Z,2.55
2023-03-28T09:31:25.219Z,2.85
2023-03-28T09:33:58.466Z,2.42
2023-03-28T09:36:45.674Z,2.60
2023-03-28T09:39:28.662Z,3.00
2023-03-28T09:42:05.746Z,2.65
2023-03-28T09:44:53.640Z,2.13
2023-03-28T09:47:22.874Z,3.03
2023-03-28T09:49:59.452Z,2.20
2023-03-28T09:52:39.815Z,2.58
2023-03-28T09:55:18.274Z,2.72
2023-03-28T09:58:09.172Z,2.45
2023-03-28T10:00:41.111Z,2.53
2023-03-28T10:03:23.336Z,2.85
2023-03-28T10:05:52.817Z,2.65
2023-03-28T10:08:32.752Z,2.70
2023-03-28T10:11:04.776Z,2.70
2023-03-28T10:13:42.459Z,2.70
2023-03-28T10:16:13.193Z,3.40
2023-03-28T10:18:43.073Z,3.33
2023-03-28T10:21:18.360Z,4.88
2023-03-28T10:24:02.996Z,7.15
2023-03-28T10:26:31.730Z,7.85
2023-03-28T10:29:04.602Z,9.60
2023-03-28T10:31:34.628Z,9.40
2023-03-28T10:34:03.875Z,8.75
2023-03-28T10:36:37.550Z,8.15
2023-03-28T10:39:24.492Z,6.50
2023-03-28T10:41:56.861Z,7.10
2023-03-28T10:44:31.096Z,4.95
2023-03-28T10:47:03.517Z,4.18
2023-03-28T10:49:44.452Z,3.33
2023-03-28T10:52:24.043Z,3.03
2023-03-28T10:55:10.769Z,2.70
2023-03-28T10:57:51.082Z,2.92
2023-03-28T11:00:24.459Z,2.80
2023-03-28T11:03:41.939Z,3.13
2023-03-28T11:06:19.273Z,2.85
2023-03-28T11:09:02.404Z,2.42
2023-03-28T11:11:52.750Z,2.53
2023-03-28T11:14:34.809Z,2.75
2023-03-28T11:17:08.892Z,2.47
2023-03-28T11:19:57.196Z,2.42
2023-03-28T11:22:39.723Z,2.72
2023-03-28T11:25:36.184Z,3.25
2023-03-28T11:28:16.867Z,3.20
2023-03-28T11:30:54.509Z,2.72
2023-03-28T11:33:31.236Z,2.78
2023-03-28T11:36:06.657Z,3.40
2023-03-28T11:38:39.109Z,3.10
2023-03-28T11:41:14.585Z,2.55
2023-03-28T11:43:52.021Z,2.65
2023-03-28T11:46:27.371Z,2.75
2023-03-28T11:49:04.063Z,2.40
2023-03-28T11:51:37.757Z,2.88
2023-03-28T11:54:14.236Z,2.47
2023-03-28T11:56:54.434Z,3.00
2023-03-28T11:59:29.761Z,2.10
2023-03-28T12:02:05.737Z,2.55
2023-03-28T12:04:43.804Z,2.70
2023-03-28T12:07:19.110Z,2.70
2023-03-28T12:10:08.273Z,2.67
2023-03-28T12:12:44.825Z,2.38
2023-03-28T12:15:19.245Z,2.85
2023-03-28T12:17:51.756Z,2.20
2023-03-28T12:20:33.694Z,2.70
2023-03-28T12:23:09.345Z,2.58
2023-03-28T12:25:44.993Z,2.50
2023-03-28T12:28:25.565Z,2.40
2023-03-28T12:31:05.883Z,2.42
2023-03-28T12:33:50.114Z,2.30
2023-03-28T12:36:24.330Z,2.33
2023-03-28T12:38:58.918Z,3.15
2023-03-28T12:41:32.570Z,2.67
2023-03-28T12:44:06.011Z,3.15
2023-03-28T12:46:46.168Z,2.75
2023-03-28T12:49:19.862Z,3.33
2023-03-28T12:51:52.001Z,3.20
2023-03-28T12:54:27.797Z,2.90
2023-03-28T12:57:30.375Z,2.90
2023-03-28T13:00:23.148Z,3.30
2023-03-28T13:03:07.948Z,2.97
2023-03-28T13:05:47.923Z,2.83
2023-03-28T13:08:24.429Z,3.20
2023-03-28T13:11:09.692Z,3.08
2023-03-28T13:13:47.747Z,3.20
2023-03-28T13:16:23.438Z,2.88
2023-03-28T13:19:08.484Z,3.53
2023-03-28T13:21:46.185Z,3.67
2023-03-28T13:24:31.864Z,3.50
2023-03-28T13:27:02.513Z,3.60
2023-03-28T13:29:47.527Z,3.38
2023-03-28T13:32:18.686Z,3.47
2023-03-28T13:34:56.773Z,3.50
2023-03-28T13:37:26.815Z,3.50
2023-03-28T13:40:01.272Z,3.55
2023-03-28T13:42:33.042Z,3.33
2023-03-28T13:45:06.184Z,3.60
2023-03-28T13:47:39.680Z,4.03
2023-03-28T13:50:22.651Z,3.55
2023-03-28T13:52:51.180Z,3.47
2023-03-28T13:55:23.938Z,3.45
2023-03-28T13:57:53.468Z,3.45
2023-03-28T14:00:25.976Z,4.10
2023-03-28T14:03:01.680Z,3.80
2023-03-28T14:05:33.957Z,4.60
2023-03-28T14:08:22.016Z,3.80
2023-03-28T14:10:52.358Z,4.30
2023-03-28T14:13:26.300Z,3.75
2023-03-28T14:15:56.748Z,4.15
2023-03-28T14:18:30.349Z,4.25
2023-03-28T14:21:01.337Z,3.67
2023-03-28T14:23:32.643Z,3.38
2023-03-28T14:26:04.724Z,4.07
2023-03-28T14:28:41.750Z,4.07
2023-03-28T14:31:15.703Z,3.80
2023-03-28T14:33:47.547Z,3.90
2023-03-28T14:36:19.450Z,3.47
2023-03-28T14:38:47.853Z,4.20
2023-03-28T14:41:21.225Z,3.80
2023-03-28T14:43:54.398Z,4.03
2023-03-28T14:46:26.326Z,4.22
2023-03-28T14:48:59.466Z,4.38
2023-03-28T14:51:29.344Z,4.07
2023-03-28T14:53:58.041Z,3.83
2023-03-28T14:56:28.695Z,4.13
2023-03-28T14:59:00.816Z,4.13
2023-03-28T15:01:33.394Z,3.65
2023-03-28T15:04:11.757Z,4.85
2023-03-28T15:06:41.731Z,4.18
2023-03-28T15:09:12.936Z,4.00
2023-03-28T15:11:44.654Z,4.40
2023-03-28T15:14:17.663Z,3.72
2023-03-28T15:16:47.894Z,4.30
2023-03-28T15:19:23.272Z,4.00
2023-03-28T15:21:57.330Z,4.55
2023-03-28T15:24:28.005Z,4.70
2023-03-28T15:27:02.578Z,4.72
2023-03-28T15:29:35.836Z,4.85
2023-03-28T15:32:09.462Z,4.30
2023-03-28T15:34:47.173Z,4.72
2023-03-28T15:37:22.652Z,4.15
2023-03-28T15:39:52.624Z,5.03
2023-03-28T15:42:37.256Z,4.57
2023-03-28T15:45:25.866Z,5.05
2023-03-28T15:47:55.881Z,4.43
2023-03-28T15:50:33.152Z,4.80
2023-03-28T15:53:08.721Z,5.05
2023-03-28T15:55:37.152Z,4.38
2023-03-28T15:58:07.154Z,4.60
2023-03-28T16:00:43.432Z,4.60
2023-03-28T16:03:34.483Z,4.60
2023-03-28T16:06:26.606Z,4.53
2023-03-28T16:09:16.743Z,4.65
2023-03-28T16:11:46.551Z,5.25
2023-03-28T16:14:20.547Z,4.28
2023-03-28T16:16:55.106Z,4.70
2023-03-28T16:19:26.321Z,4.85
2023-03-28T16:21:55.265Z,4.47
2023-03-28T16:24:25.484Z,5.13
2023-03-28T16:26:53.749Z,5.50
2023-03-28T16:29:22.324Z,5.32
2023-03-28T16:31:51.327Z,4.88
2023-03-28T16:34:19.778Z,5.50
2023-03-28T16:36:48.075Z,5.28
2023-03-28T16:39:16.574Z,5.22
2023-03-28T16:41:46.755Z,5.75
2023-03-28T16:44:15.246Z,6.05
2023-03-28T16:46:43.709Z,6.15
2023-03-28T16:49:12.020Z,5.78
2023-03-28T16:51:40.528Z,5.00
2023-03-28T16:54:10.172Z,5.20
2023-03-28T16:56:39.016Z,5.63
2023-03-28T16:59:08.777Z,5.30
2023-03-28T17:01:37.408Z,5.20
2023-03-28T17:04:06.215Z,6.00
2023-03-28T17:06:34.760Z,7.07
2023-03-28T17:09:04.661Z,11.98
2023-03-28T17:11:35.307Z,6.72
2023-03-28T17:14:03.808Z,5.50
2023-03-28T17:16:33.763Z,5.43
2023-03-28T17:19:02.666Z,6.13
2023-03-28T17:21:31.403Z,5.20
2023-03-28T17:23:59.988Z,4.32
2023-03-28T17:26:28.317Z,4.97
2023-03-28T17:28:59.133Z,4.85
2023-03-28T17:31:28.181Z,5.07
2023-03-28T17:33:58.701Z,4.72
2023-03-28T17:36:29.787Z,4.72
2023-03-28T17:39:00.249Z,4.35
2023-03-28T17:41:28.994Z,4.50
2023-03-28T17:44:00.151Z,4.40
2023-03-28T17:46:28.540Z,4.15
2023-03-28T17:48:59.706Z,4.78
2023-03-28T17:51:28.628Z,4.20
2023-03-28T17:53:57.237Z,4.10
2023-03-28T17:56:26.285Z,4.07
2023-03-28T17:58:54.848Z,4.18
2023-03-28T18:01:23.226Z,5.47
2023-03-28T18:03:51.785Z,4.22
2023-03-28T18:06:21.618Z,4.15
2023-03-28T18:08:49.986Z,4.00
2023-03-28T18:11:20.159Z,4.22
2023-03-28T18:13:49.008Z,4.13
2023-03-28T18:16:19.062Z,4.20
2023-03-28T18:18:47.500Z,4.20
2023-03-28T18:21:16.494Z,4.38
2023-03-28T18:23:48.255Z,4.38
2023-03-28T18:26:17.438Z,4.18
2023-03-28T18:28:45.792Z,4.07
2023-03-28T18:31:16.664Z,4.78
2023-03-28T18:33:45.936Z,4.22
2023-03-28T18:36:15.767Z,4.20
2023-03-28T18:38:46.592Z,3.80
2023-03-28T18:41:15.468Z,3.83
2023-03-28T18:43:45.614Z,3.33
2023-03-28T18:46:15.981Z,3.60
2023-03-28T18:48:45.380Z,3.88
2023-03-28T18:51:13.986Z,3.60
2023-03-28T18:53:42.448Z,4.10
2023-03-28T18:56:13.701Z,4.43
2023-03-28T18:58:42.306Z,3.67
2023-03-28T19:01:11.956Z,3.90
2023-03-28T19:03:43.549Z,3.40
2023-03-28T19:06:15.154Z,3.97
2023-03-28T19:08:44.680Z,4.45
2023-03-28T19:11:16.722Z,4.40
2023-03-28T19:13:45.370Z,4.50
2023-03-28T19:16:16.027Z,4.72
2023-03-28T19:18:46.829Z,4.80
2023-03-28T19:21:16.628Z,5.32
2023-03-28T19:23:45.729Z,5.50
2023-03-28T19:26:16.004Z,6.00
2023-03-28T19:28:44.555Z,4.32
2023-03-28T19:31:14.738Z,5.38
2023-03-28T19:33:43.693Z,5.22
2023-03-28T19:36:12.693Z,4.78
2023-03-28T19:38:41.677Z,4.97
2023-03-28T19:41:19.335Z,5.43
2023-03-28T19:43:49.087Z,5.00
2023-03-28T19:46:23.972Z,4.13
2023-03-28T19:48:54.591Z,4.47
2023-03-28T19:51:23.293Z,4.03
2023-03-28T19:53:51.877Z,4.20
2023-03-28T19:56:23.040Z,4.40
2023-03-28T19:58:52.096Z,4.38
2023-03-28T20:01:21.077Z,4.22
2023-03-28T20:03:52.981Z,3.90
2023-03-28T20:06:23.277Z,3.92
2023-03-28T20:08:52.233Z,3.47
2023-03-28T20:11:22.498Z,3.40
2023-03-28T20:13:51.052Z,3.30
2023-03-28T20:16:19.604Z,3.53
2023-03-28T20:18:48.392Z,2.85
2023-03-28T20:21:16.781Z,3.65
2023-03-28T20:23:46.480Z,3.25
2023-03-28T20:26:18.563Z,2.85
2023-03-28T20:28:50.577Z,2.83
2023-03-28T20:31:20.144Z,3.15
2023-03-28T20:33:48.610Z,3.60
2023-03-28T20:36:17.685Z,2.72
2023-03-28T20:38:46.407Z,2.83
2023-03-28T20:41:16.780Z,3.00
2023-03-28T20:43:47.965Z,3.20
2023-03-28T20:46:19.666Z,2.78
2023-03-28T20:48:51.993Z,3.35
2023-03-28T20:51:23.063Z,3.15
2023-03-28T20:53:55.701Z,3.13
2023-03-28T20:56:24.866Z,3.08
2023-03-28T20:58:54.391Z,2.67
2023-03-28T21:01:28.110Z,2.80
2023-03-28T21:04:00.247Z,2.95
2023-03-28T21:06:33.334Z,3.13
2023-03-28T21:09:04.964Z,2.85
2023-03-28T21:11:36.355Z,2.95
2023-03-28T21:14:06.273Z,3.15
2023-03-28T21:16:37.839Z,3.08
2023-03-28T21:19:06.670Z,3.08
2023-03-28T21:21:35.275Z,2.53
2023-03-28T21:24:07.398Z,3.08
2023-03-28T21:26:35.988Z,2.70
2023-03-28T21:29:04.701Z,2.97
2023-03-28T21:31:33.594Z,2.80
2023-03-28T21:34:03.985Z,2.85
2023-03-28T21:36:32.353Z,2.72
2023-03-28T21:39:01.088Z,2.72
2023-03-28T21:41:29.670Z,2.72
2023-03-28T21:43:58.842Z,2.60
2023-03-28T21:46:27.673Z,2.83
2023-03-28T21:48:56.221Z,3.17
2023-03-28T21:51:26.003Z,2.70
2023-03-28T21:53:54.424Z,3.05
2023-03-28T21:56:23.015Z,2.80
2023-03-28T21:58:51.428Z,3.03
2023-03-28T22:01:20.583Z,2.97
2023-03-28T22:03:49.508Z,2.60
2023-03-28T22:06:20.016Z,2.35
2023-03-28T22:08:52.548Z,3.20
2023-03-28T22:11:27.479Z,2.47
2023-03-28T22:14:01.650Z,3.00
2023-03-28T22:16:37.442Z,2.65
2023-03-28T22:19:06.444Z,2.97
2023-03-28T22:21:34.796Z,2.55
2023-03-28T22:24:07.169Z,2.70
2023-03-28T22:26:36.164Z,3.10
2023-03-28T22:29:05.132Z,2.97
2023-03-28T22:31:33.975Z,3.13
2023-03-28T22:34:02.377Z,3.20
2023-03-28T22:36:31.397Z,2.70
2023-03-28T22:39:00.021Z,2.83
2023-03-28T22:41:31.794Z,2.75
2023-03-28T22:44:00.630Z,2.75
2023-03-28T22:46:28.968Z,2.90
2023-03-28T22:48:58.524Z,2.85
2023-03-28T22:51:27.926Z,3.50
2023-03-28T22:54:00.349Z,3.13
2023-03-28T22:56:30.711Z,3.45
2023-03-28T22:59:01.460Z,2.90
2023-03-28T23:01:30.177Z,2.75
2023-03-28T23:03:59.266Z,2.58
2023-03-28T23:06:28.619Z,2.60
2023-03-28T23:08:58.683Z,3.15
2023-03-28T23:11:27.784Z,2.67
2023-03-28T23:13:57.998Z,2.72
2023-03-28T23:16:26.680Z,3.13
2023-03-28T23:18:55.140Z,2.72
2023-03-28T23:21:24.471Z,3.08
2023-03-28T23:23:53.276Z,2.95
2023-03-28T23:26:22.353Z,2.55
2023-03-28T23:28:50.928Z,2.45
2023-03-28T23:31:21.015Z,2.58
2023-03-28T23:33:50.258Z,2.30
2023-03-28T23:36:20.800Z,2.60
2023-03-28T23:38:50.279Z,2.70
2023-03-28T23:41:18.762Z,2.67
2023-03-28T23:43:47.254Z,2.60
2023-03-28T23:46:16.309Z,2.95
2023-03-28T23:48:46.162Z,2.28
2023-03-28T23:51:14.523Z,2.80
2023-03-28T23:53:42.958Z,2.70
2023-03-28T23:56:11.643Z,2.55
2023-03-28T23:58:40.296Z,2.83
